Time;durP1;ratioP1;P1;durP2;ratioP2;P2;SDS_P1;SDS_P2;PMS_P1;PMS_P2;Temp;Humidity;BMP_temperature;BMP_pressure;BME280_temperature;BME280_humidity;BME280_pressure;Samples;Min_cycle;Max_cycle;Signal;HPM_P1;HPM_P2
2024/02/01 00:00:10;;;;;;;11.83;7.77;;;15.10;57.60;;;;;;5021394;28;20189;-66
2024/02/01 00:02:35;;;;;;;9.60;7.87;;;15.10;57.60;;;;;;5020854;28;20189;-62
2024/02/01 00:05:01;;;;;;;8.90;7.40;;;15.10;57.60;;;;;;5021240;28;20831;-70
2024/02/01 00:07:26;;;;;;;9.27;7.30;;;15.10;57.60;;;;;;5018748;28;20213;-59
2024/02/01 00:09:52;;;;;;;10.73;7.27;;;15.10;57.60;;;;;;5022874;28;20227;-68
2024/02/01 00:12:18;;;;;;;8.53;6.93;;;15.10;57.70;;;;;;5020723;28;20228;-60
2024/02/01 00:14:43;;;;;;;14.27;7.87;;;15.10;57.50;;;;;;5022002;28;20234;-66
2024/02/01 00:17:09;;;;;;;8.20;6.73;;;15.10;57.60;;;;;;5018775;28;20295;-73
2024/02/01 00:19:35;;;;;;;7.80;7.00;;;15.10;57.70;;;;;;5024322;28;20557;-59
2024/02/01 00:22:00;;;;;;;10.07;8.00;;;15.10;57.60;;;;;;5022346;28;20189;-61
2024/02/01 00:24:26;;;;;;;7.97;7.00;;;15.10;57.70;;;;;;5021351;28;20510;-60
2024/02/01 00:26:52;;;;;;;7.90;7.13;;;15.10;57.60;;;;;;5020298;28;20275;-64
2024/02/01 00:29:17;;;;;;;8.57;7.50;;;15.10;57.70;;;;;;5025980;28;20667;-70
2024/02/01 00:31:43;;;;;;;8.93;7.17;;;15.10;57.80;;;;;;5024514;28;20220;-60
2024/02/01 00:34:08;;;;;;;8.17;7.30;;;15.10;57.80;;;;;;5022818;28;20182;-62
2024/02/01 00:36:34;;;;;;;7.63;6.87;;;15.10;57.70;;;;;;5018006;28;20216;-62
2024/02/01 00:39:00;;;;;;;12.93;6.90;;;15.10;57.70;;;;;;5021009;28;20182;-66
2024/02/01 00:41:26;;;;;;;10.00;6.70;;;15.10;57.70;;;;;;5019405;28;20290;-65
2024/02/01 00:43:52;;;;;;;8.57;7.67;;;15.10;57.80;;;;;;5022251;28;20436;-73
2024/02/01 00:46:17;;;;;;;10.20;7.50;;;15.10;57.70;;;;;;5018875;28;20243;-65
2024/02/01 00:48:43;;;;;;;8.17;7.37;;;15.20;57.70;;;;;;5019380;28;20478;-60
2024/02/01 00:51:09;;;;;;;8.65;6.65;;;15.10;57.70;;;;;;5022036;28;20179;-70
2024/02/01 00:53:34;;;;;;;8.40;6.83;;;15.10;57.70;;;;;;5024142;28;20272;-59
2024/02/01 00:56:00;;;;;;;8.13;6.93;;;15.10;57.70;;;;;;5022386;28;20215;-73
2024/02/01 00:58:25;;;;;;;9.80;7.57;;;15.10;57.80;;;;;;5024872;28;20266;-69
2024/02/01 01:00:51;;;;;;;9.40;6.80;;;15.10;57.70;;;;;;5018047;28;20178;-70
2024/02/01 01:03:17;;;;;;;7.10;6.50;;;15.10;57.80;;;;;;5023865;28;20197;-63
2024/02/01 01:05:43;;;;;;;8.03;7.23;;;15.10;57.80;;;;;;5016598;28;20672;-68
2024/02/01 01:08:08;;;;;;;8.97;7.27;;;15.10;57.80;;;;;;5021700;28;20692;-61
2024/02/01 01:10:34;;;;;;;8.03;6.70;;;15.00;58.00;;;;;;5025202;28;20456;-67
2024/02/01 01:12:59;;;;;;;9.07;6.70;;;15.00;58.10;;;;;;5027410;28;20228;-59
2024/02/01 01:15:25;;;;;;;7.00;6.23;;;14.90;58.00;;;;;;5028821;28;20181;-60
2024/02/01 01:17:50;;;;;;;6.87;6.20;;;14.90;58.10;;;;;;5026013;28;20185;-67
2024/02/01 01:20:16;;;;;;;9.83;6.67;;;14.90;58.10;;;;;;5026855;28;20181;-68
2024/02/01 01:22:42;;;;;;;9.40;7.23;;;14.90;58.10;;;;;;5024008;28;20213;-59
2024/02/01 01:25:07;;;;;;;6.07;5.47;;;14.90;58.10;;;;;;5022023;28;20185;-61
2024/02/01 01:27:33;;;;;;;9.07;5.97;;;14.90;58.20;;;;;;5017150;28;20730;-62
2024/02/01 01:29:59;;;;;;;6.50;5.90;;;14.80;58.40;;;;;;5025827;28;20268;-62
2024/02/01 01:32:24;;;;;;;9.63;7.27;;;14.60;58.80;;;;;;5025635;28;20220;-69
2024/02/01 01:34:50;;;;;;;8.30;6.67;;;14.70;58.80;;;;;;5024433;28;20244;-63
2024/02/01 01:37:15;;;;;;;9.23;7.23;;;14.80;58.60;;;;;;5021328;28;20205;-60
2024/02/01 01:39:41;;;;;;;8.70;6.97;;;14.90;58.40;;;;;;5020435;28;20236;-62
2024/02/01 01:42:06;;;;;;;12.00;6.97;;;14.90;58.30;;;;;;5019536;28;20716;-71
2024/02/01 01:44:32;;;;;;;9.40;6.37;;;14.70;58.60;;;;;;5023730;28;20255;-61
2024/02/01 01:46:58;;;;;;;13.83;7.97;;;14.70;59.00;;;;;;5023100;28;20681;-61
2024/02/01 01:49:24;;;;;;;7.90;7.10;;;14.70;59.10;;;;;;5029577;28;20185;-62
2024/02/01 01:51:51;;;;;;;9.50;7.10;;;14.80;59.10;;;;;;5023210;28;20962;-61
2024/02/01 01:54:21;;;;;;;7.73;6.93;;;14.80;59.20;;;;;;5027267;28;20497;-65
2024/02/01 01:56:49;;;;;;;10.40;6.73;;;14.80;59.30;;;;;;5024369;28;20463;-66
2024/02/01 01:59:16;;;;;;;9.17;6.70;;;14.60;59.70;;;;;;5028479;28;20444;-67
2024/02/01 02:01:45;;;;;;;8.20;7.10;;;14.70;59.70;;;;;;5027241;28;20424;-61
2024/02/01 02:04:14;;;;;;;8.70;7.27;;;14.70;59.50;;;;;;5028584;28;20882;-65
2024/02/01 02:06:42;;;;;;;10.13;7.00;;;14.60;59.80;;;;;;5023778;28;20499;-63
2024/02/01 02:09:12;;;;;;;7.53;6.63;;;14.60;60.20;;;;;;5026842;28;21015;-60
2024/02/01 02:11:44;;;;;;;10.17;6.93;;;14.50;60.10;;;;;;5026272;28;20487;-64
2024/02/01 02:14:11;;;;;;;8.53;6.90;;;14.40;60.30;;;;;;5021542;28;20444;-61
2024/02/01 02:16:37;;;;;;;11.93;6.70;;;14.20;60.80;;;;;;5023323;28;20464;-68
2024/02/01 02:19:16;;;;;;;8.30;6.63;;;14.10;61.10;;;;;;5022805;28;20443;-67
2024/02/01 02:21:49;;;;;;;12.30;6.90;;;13.90;61.30;;;;;;5029456;28;20452;-66
2024/02/01 02:24:15;;;;;;;7.93;6.97;;;14.00;61.20;;;;;;5028883;28;20811;-59
2024/02/01 02:26:41;;;;;;;8.90;6.80;;;14.10;60.90;;;;;;5020993;28;20456;-61
2024/02/01 02:29:07;;;;;;;6.97;6.20;;;13.90;60.80;;;;;;5023706;28;20451;-60
2024/02/01 02:31:32;;;;;;;8.13;7.43;;;14.00;60.70;;;;;;5026462;28;20487;-60
2024/02/01 02:33:59;;;;;;;8.23;6.90;;;13.80;61.80;;;;;;5025083;28;20185;-62
2024/02/01 02:36:25;;;;;;;9.23;6.57;;;13.70;61.30;;;;;;5026227;28;20688;-61
2024/02/01 02:38:50;;;;;;;8.83;5.20;;;13.70;61.40;;;;;;5030957;28;20443;-62
2024/02/01 02:41:16;;;;;;;9.13;6.33;;;13.60;61.40;;;;;;5024028;28;20947;-63
2024/02/01 02:43:43;;;;;;;8.17;6.10;;;13.50;61.70;;;;;;5024176;28;20190;-62
2024/02/01 02:46:08;;;;;;;8.30;6.83;;;13.40;61.90;;;;;;5018680;28;20216;-71
2024/02/01 02:48:34;;;;;;;7.37;5.50;;;13.40;61.70;;;;;;5023256;28;20807;-69
2024/02/01 02:50:59;;;;;;;7.67;6.00;;;13.50;61.80;;;;;;5024000;28;20220;-70
2024/02/01 02:53:25;;;;;;;10.10;6.17;;;13.60;61.30;;;;;;5028644;28;20300;-62
2024/02/01 02:55:50;;;;;;;7.33;6.43;;;13.30;61.60;;;;;;5022403;28;20206;-61
2024/02/01 02:58:16;;;;;;;8.30;7.00;;;13.40;61.70;;;;;;5023515;28;20178;-62
2024/02/01 03:00:41;;;;;;;6.90;5.97;;;13.30;61.30;;;;;;5020541;28;20197;-64
2024/02/01 03:03:07;;;;;;;9.00;5.50;;;13.20;61.80;;;;;;5024544;28;20192;-61
2024/02/01 03:05:33;;;;;;;11.13;6.80;;;13.20;61.80;;;;;;5027757;28;20186;-64
2024/02/01 03:08:04;;;;;;;9.53;6.50;;;13.20;61.80;;;;;;5025787;28;20278;-61
2024/02/01 03:10:31;;;;;;;9.70;7.13;;;13.40;61.40;;;;;;5026944;28;20688;-64
2024/02/01 03:12:57;;;;;;;7.80;5.93;;;13.50;60.80;;;;;;5029225;28;21018;-60
2024/02/01 03:15:23;;;;;;;8.03;6.20;;;13.80;60.30;;;;;;5026357;28;20485;-64
2024/02/01 03:17:49;;;;;;;8.70;5.27;;;13.90;59.40;;;;;;5023271;28;20865;-67
2024/02/01 03:20:17;;;;;;;6.87;4.50;;;13.90;59.00;;;;;;5028687;28;20185;-62
2024/02/01 03:22:54;;;;;;;5.00;4.50;;;13.80;58.50;;;;;;5023579;28;20224;-62
2024/02/01 03:25:31;;;;;;;7.63;5.17;;;13.90;58.20;;;;;;5020539;28;20745;-65
2024/02/01 03:28:03;;;;;;;9.87;4.43;;;13.90;57.70;;;;;;5020495;28;20490;-63
2024/02/01 03:30:30;;;;;;;6.73;5.30;;;13.80;57.30;;;;;;5029157;28;20511;-64
2024/02/01 03:32:57;;;;;;;6.63;4.27;;;13.90;57.20;;;;;;5028137;28;20494;-68
2024/02/01 03:35:23;;;;;;;4.57;3.87;;;14.00;56.70;;;;;;5017255;28;20854;-62
2024/02/01 03:37:50;;;;;;;6.83;4.43;;;13.90;56.60;;;;;;5024638;28;20475;-60
2024/02/01 03:40:18;;;;;;;4.83;3.97;;;14.10;56.50;;;;;;5022269;28;20519;-59
2024/02/01 03:42:45;;;;;;;6.93;5.03;;;14.20;56.30;;;;;;5021647;28;20440;-61
2024/02/01 03:45:11;;;;;;;4.97;4.47;;;14.30;56.10;;;;;;5024884;28;20450;-63
2024/02/01 03:47:37;;;;;;;9.20;4.23;;;14.50;55.60;;;;;;5021180;28;20562;-61
2024/02/01 03:50:08;;;;;;;5.93;4.57;;;14.60;55.40;;;;;;5026174;28;20523;-64
2024/02/01 03:52:43;;;;;;;5.23;4.50;;;14.70;55.30;;;;;;5026270;28;20252;-61
2024/02/01 03:55:16;;;;;;;5.03;4.40;;;14.80;55.10;;;;;;5027859;28;20962;-63
2024/02/01 03:57:46;;;;;;;4.80;4.30;;;14.80;55.00;;;;;;5025363;28;20460;-60
2024/02/01 04:00:25;;;;;;;5.73;3.83;;;14.80;55.00;;;;;;5023968;28;20456;-60
2024/02/01 04:02:54;;;;;;;6.60;4.50;;;14.90;54.90;;;;;;5028814;28;20451;-67
2024/02/01 04:05:20;;;;;;;4.67;3.93;;;14.90;54.80;;;;;;5024904;28;20970;-62
2024/02/01 04:07:46;;;;;;;5.47;4.17;;;15.00;54.70;;;;;;5024944;28;20467;-66
2024/02/01 04:10:11;;;;;;;3.67;3.37;;;15.00;54.70;;;;;;5021065;28;20587;-61
2024/02/01 04:12:37;;;;;;;5.60;4.43;;;15.00;54.60;;;;;;5018787;28;20221;-63
2024/02/01 04:15:03;;;;;;;5.37;4.10;;;15.10;54.60;;;;;;5023137;28;20197;-66
2024/02/01 04:17:28;;;;;;;4.87;3.37;;;15.10;54.50;;;;;;5024645;28;20216;-71
2024/02/01 04:19:54;;;;;;;9.30;4.07;;;15.00;54.60;;;;;;5026017;28;20444;-71
2024/02/01 04:22:21;;;;;;;4.40;4.00;;;15.00;55.10;;;;;;5021105;28;20193;-62
2024/02/01 04:24:47;;;;;;;5.80;4.10;;;14.90;55.10;;;;;;5026159;28;20615;-60
2024/02/01 04:27:13;;;;;;;5.57;4.23;;;14.90;55.10;;;;;;5017276;28;20814;-68
2024/02/01 04:29:38;;;;;;;4.47;3.50;;;14.90;55.20;;;;;;5024777;28;20435;-66
2024/02/01 04:32:05;;;;;;;4.63;4.10;;;14.90;55.00;;;;;;5021411;28;20228;-69
2024/02/01 04:34:34;;;;;;;3.97;3.60;;;15.00;54.80;;;;;;5028360;28;20522;-60
2024/02/01 04:37:00;;;;;;;4.73;3.50;;;15.00;54.70;;;;;;5018880;28;20546;-61
2024/02/01 04:39:25;;;;;;;7.00;3.83;;;15.00;54.80;;;;;;5023427;28;20496;-63
2024/02/01 04:41:56;;;;;;;3.60;3.30;;;14.90;54.80;;;;;;5022532;28;20248;-69
2024/02/01 04:44:21;;;;;;;4.90;4.40;;;14.90;54.70;;;;;;5022523;28;20250;-70
2024/02/01 04:46:47;;;;;;;4.00;3.53;;;15.00;54.90;;;;;;5017946;28;20459;-69
2024/02/01 04:49:12;;;;;;;4.17;3.80;;;15.00;55.10;;;;;;5018280;28;20177;-60
2024/02/01 04:51:39;;;;;;;8.80;4.37;;;15.00;55.10;;;;;;5019581;28;20218;-60
2024/02/01 04:54:06;;;;;;;9.27;4.33;;;15.10;55.00;;;;;;5024915;28;20209;-67
2024/02/01 04:56:32;;;;;;;6.63;3.70;;;15.10;54.80;;;;;;5021241;28;20558;-64
2024/02/01 04:58:58;;;;;;;4.20;3.80;;;15.20;54.70;;;;;;5025851;28;20511;-64
2024/02/01 05:01:24;;;;;;;3.90;3.40;;;15.10;54.70;;;;;;5019219;28;20555;-63
2024/02/01 05:03:50;;;;;;;5.13;3.70;;;15.20;54.90;;;;;;5018338;28;20228;-61
2024/02/01 05:06:20;;;;;;;4.27;3.97;;;15.10;54.80;;;;;;5024005;28;21067;-63
2024/02/01 05:08:46;;;;;;;4.13;3.60;;;15.10;54.90;;;;;;5028373;28;20194;-62
2024/02/01 05:11:11;;;;;;;9.87;3.80;;;15.10;54.90;;;;;;5026301;28;20448;-65
2024/02/01 05:13:40;;;;;;;6.30;4.20;;;15.10;54.90;;;;;;5020149;28;20697;-62
2024/02/01 05:16:06;;;;;;;6.93;4.80;;;15.10;54.70;;;;;;5020912;28;20684;-67
2024/02/01 05:18:31;;;;;;;6.70;4.53;;;15.10;54.70;;;;;;5022064;28;20467;-67
2024/02/01 05:20:57;;;;;;;5.43;4.20;;;15.00;54.80;;;;;;5028224;28;20204;-60
2024/02/01 05:23:22;;;;;;;5.90;3.50;;;15.00;55.10;;;;;;5026284;28;20189;-62
2024/02/01 05:25:48;;;;;;;5.70;3.77;;;15.00;55.10;;;;;;5028057;28;20589;-64
2024/02/01 05:28:14;;;;;;;8.10;3.90;;;15.10;55.50;;;;;;5032097;28;20197;-64
2024/02/01 05:30:42;;;;;;;3.93;3.53;;;15.10;55.60;;;;;;5026457;28;20246;-64
2024/02/01 05:33:08;;;;;;;7.50;3.93;;;15.10;56.10;;;;;;5029889;28;20220;-65
2024/02/01 05:35:34;;;;;;;7.13;4.03;;;15.10;56.40;;;;;;5031029;28;20452;-66
2024/02/01 05:38:00;;;;;;;8.00;4.40;;;15.10;56.30;;;;;;5027958;28;20455;-66
2024/02/01 05:40:27;;;;;;;6.43;4.10;;;15.10;56.20;;;;;;5028341;28;20193;-63
2024/02/01 05:42:53;;;;;;;8.07;4.20;;;15.10;56.20;;;;;;5028326;28;20503;-64
2024/02/01 05:45:19;;;;;;;7.63;4.40;;;15.10;56.30;;;;;;5022512;28;20972;-62
2024/02/01 05:47:45;;;;;;;5.37;4.40;;;15.10;56.50;;;;;;5028812;28;20284;-63
2024/02/01 05:50:15;;;;;;;4.67;4.07;;;15.10;56.60;;;;;;5025443;28;20518;-63
2024/02/01 05:52:41;;;;;;;6.30;4.50;;;15.10;56.70;;;;;;5025807;28;20488;-63
2024/02/01 05:55:08;;;;;;;4.93;4.53;;;15.10;56.70;;;;;;5030281;28;20436;-62
2024/02/01 05:57:34;;;;;;;4.80;4.30;;;15.10;56.70;;;;;;5028869;28;20466;-62
2024/02/01 06:00:01;;;;;;;4.80;4.10;;;15.10;56.60;;;;;;5029500;28;20595;-61
2024/02/01 06:02:30;;;;;;;5.80;4.07;;;15.10;56.50;;;;;;5028749;28;20448;-63
2024/02/01 06:04:56;;;;;;;7.23;3.90;;;15.10;56.70;;;;;;5026289;28;20847;-60
2024/02/01 06:07:22;;;;;;;5.40;4.60;;;15.10;56.70;;;;;;5027780;28;20463;-65
2024/02/01 06:09:47;;;;;;;4.47;4.07;;;15.10;56.70;;;;;;5025804;28;20182;-63
2024/02/01 06:12:13;;;;;;;5.63;3.87;;;15.10;57.10;;;;;;5024438;28;20209;-65
2024/02/01 06:14:38;;;;;;;7.03;4.10;;;15.00;57.70;;;;;;5027325;28;20557;-69
2024/02/01 06:17:04;;;;;;;7.23;5.27;;;15.00;57.90;;;;;;5030030;28;20213;-67
2024/02/01 06:19:30;;;;;;;4.60;4.13;;;15.00;58.20;;;;;;5033692;28;20677;-67
2024/02/01 06:21:56;;;;;;;4.40;3.80;;;15.00;58.20;;;;;;5032981;28;20447;-63
2024/02/01 06:24:21;;;;;;;4.90;3.47;;;15.10;58.40;;;;;;5033500;28;20185;-71
2024/02/01 06:26:47;;;;;;;4.90;4.13;;;15.20;58.50;;;;;;5030659;28;20224;-64
2024/02/01 06:29:13;;;;;;;3.33;3.03;;;15.20;58.70;;;;;;5029504;28;20189;-65
2024/02/01 06:31:39;;;;;;;3.60;3.30;;;15.20;58.80;;;;;;5021317;28;20186;-67
2024/02/01 06:34:06;;;;;;;4.27;3.87;;;15.20;58.90;;;;;;5026596;28;20194;-64
2024/02/01 06:36:35;;;;;;;6.00;4.40;;;15.10;59.20;;;;;;5030528;28;20452;-64
2024/02/01 06:44:09;;;;;;;6.50;4.40;;;15.10;59.60;;;;;;5026645;28;20459;-63
2024/02/01 06:58:03;;;;;;;7.50;4.60;;;15.00;61.10;;;;;;5027359;28;20463;-65
2024/02/01 07:03:31;;;;;;;5.37;3.93;;;15.00;61.50;;;;;;5028172;28;20432;-63
2024/02/01 07:06:05;;;;;;;7.83;4.40;;;15.00;62.40;;;;;;5024695;28;20463;-67
2024/02/01 07:08:45;;;;;;;5.33;4.57;;;15.00;62.10;;;;;;5025195;28;20771;-65
2024/02/01 07:16:35;;;;;;;5.20;4.37;;;15.10;62.40;;;;;;5022834;28;20464;-63
2024/02/01 07:19:12;;;;;;;8.93;4.93;;;15.00;62.40;;;;;;5022284;28;20440;-64
2024/02/01 07:57:35;;;;;;;4.30;3.90;;;14.90;63.20;;;;;;5025399;28;20467;-67
2024/02/01 08:00:01;;;;;;;9.50;4.33;;;14.90;63.30;;;;;;5024499;28;20438;-65
2024/02/01 08:07:56;;;;;;;6.17;3.80;;;15.00;63.40;;;;;;5024368;28;20422;-62
2024/02/01 08:10:23;;;;;;;6.90;4.37;;;15.00;63.20;;;;;;5025522;28;20443;-60
2024/02/01 08:12:50;;;;;;;6.77;6.03;;;15.10;63.30;;;;;;5026684;28;20233;-62
2024/02/01 08:15:19;;;;;;;7.27;5.00;;;15.10;63.30;;;;;;5025715;28;20943;-62
2024/02/01 08:17:49;;;;;;;5.00;2.87;;;15.00;63.50;;;;;;5027980;28;20951;-62
2024/02/01 08:20:15;;;;;;;6.90;4.00;;;14.90;63.30;;;;;;5028865;28;21039;-62
2024/02/01 08:22:44;;;;;;;8.93;5.40;;;14.80;63.90;;;;;;5025479;28;20529;-62
2024/02/01 08:25:11;;;;;;;6.90;4.77;;;14.90;63.70;;;;;;5026188;28;20190;-61
2024/02/01 08:27:37;;;;;;;8.23;4.57;;;14.90;63.60;;;;;;5023091;28;20478;-62
2024/02/01 08:30:12;;;;;;;6.20;3.60;;;15.00;63.90;;;;;;5023293;28;20439;-62
2024/02/01 08:32:41;;;;;;;7.57;4.23;;;15.00;64.00;;;;;;5023489;28;20508;-63
2024/02/01 08:35:10;;;;;;;6.33;4.07;;;14.90;64.30;;;;;;5025583;28;20950;-63
2024/02/01 08:37:38;;;;;;;10.03;3.70;;;14.90;64.50;;;;;;5025948;28;20513;-62
2024/02/01 08:40:20;;;;;;;5.97;3.77;;;14.90;64.40;;;;;;5029182;28;20474;-63
2024/02/01 08:42:49;;;;;;;6.30;2.70;;;14.80;64.70;;;;;;5026081;28;20416;-63
2024/02/01 08:45:16;;;;;;;6.77;3.00;;;14.70;64.80;;;;;;5026992;28;20446;-62
2024/02/01 08:47:44;;;;;;;5.00;3.33;;;14.70;65.10;;;;;;5023293;28;20530;-62
2024/02/01 08:50:11;;;;;;;5.97;3.00;;;14.70;65.40;;;;;;5027951;28;20432;-61
2024/02/01 08:52:38;;;;;;;6.70;3.40;;;14.60;65.70;;;;;;5023683;28;20509;-62
2024/02/01 08:55:10;;;;;;;7.27;2.90;;;14.60;65.90;;;;;;5022352;28;20449;-62
2024/02/01 08:57:37;;;;;;;8.77;2.70;;;14.50;65.80;;;;;;5028034;28;20447;-61
2024/02/01 09:00:21;;;;;;;4.17;3.20;;;14.40;66.50;;;;;;5027683;28;20427;-62
2024/02/01 09:03:06;;;;;;;4.87;3.10;;;14.40;66.90;;;;;;5024443;28;20899;-60
2024/02/01 09:05:38;;;;;;;5.53;2.90;;;14.40;66.60;;;;;;5026065;28;20939;-62
2024/02/01 09:08:06;;;;;;;3.00;2.67;;;14.50;66.70;;;;;;5023354;28;20423;-62
2024/02/01 09:10:33;;;;;;;3.27;2.40;;;14.50;66.90;;;;;;5029496;28;20408;-62
2024/02/01 09:12:59;;;;;;;6.07;2.27;;;14.50;66.90;;;;;;5025090;28;20492;-60
2024/02/01 09:15:25;;;;;;;2.63;2.40;;;14.60;66.80;;;;;;5028914;28;20447;-61
2024/02/01 09:17:51;;;;;;;4.20;2.47;;;14.70;66.20;;;;;;5025796;28;20250;-62
2024/02/01 09:20:18;;;;;;;6.17;3.13;;;14.80;66.00;;;;;;5027653;28;20451;-62
2024/02/01 09:22:48;;;;;;;2.87;2.53;;;14.80;65.70;;;;;;5026252;28;20446;-61
2024/02/01 09:25:15;;;;;;;2.90;2.20;;;14.90;65.90;;;;;;5027110;28;20424;-61
2024/02/01 09:27:44;;;;;;;3.80;2.13;;;14.90;65.70;;;;;;5022135;28;20467;-61
2024/02/01 09:30:11;;;;;;;2.63;2.23;;;14.90;65.90;;;;;;5023312;28;20440;-61
2024/02/01 09:32:38;;;;;;;3.10;2.80;;;14.90;66.20;;;;;;5020648;28;20880;-62
2024/02/01 09:35:05;;;;;;;2.93;2.70;;;14.90;66.10;;;;;;5025742;28;20861;-62
2024/02/01 09:37:31;;;;;;;4.20;2.30;;;14.90;65.90;;;;;;5025107;28;20487;-62
2024/02/01 09:40:00;;;;;;;2.57;2.37;;;15.00;66.00;;;;;;5022853;28;20456;-61
2024/02/01 09:42:26;;;;;;;3.80;2.80;;;15.10;66.00;;;;;;5027231;28;20252;-62
2024/02/01 09:44:56;;;;;;;4.43;2.33;;;15.20;66.00;;;;;;5022077;28;20436;-60
2024/02/01 09:47:26;;;;;;;2.67;2.40;;;15.20;65.70;;;;;;5021896;28;20455;-61
2024/02/01 09:49:55;;;;;;;3.77;2.33;;;15.30;65.60;;;;;;5022097;28;20817;-62
2024/02/01 09:52:22;;;;;;;3.93;2.47;;;15.40;65.50;;;;;;5014900;28;20475;-60
2024/02/01 09:54:48;;;;;;;4.63;2.67;;;15.40;65.30;;;;;;5021972;28;20443;-62
2024/02/01 09:57:16;;;;;;;3.37;2.57;;;15.30;65.10;;;;;;5025611;28;20482;-63
2024/02/01 09:59:42;;;;;;;4.00;2.97;;;15.40;65.20;;;;;;5025923;28;20225;-62
2024/02/01 10:02:11;;;;;;;3.97;3.57;;;15.30;65.10;;;;;;5028083;28;20490;-62
2024/02/01 10:04:36;;;;;;;4.10;3.10;;;15.40;65.40;;;;;;5025325;28;20532;-62
2024/02/01 10:07:02;;;;;;;4.80;2.90;;;15.40;65.40;;;;;;5027453;28;20542;-61
2024/02/01 10:09:29;;;;;;;4.33;2.53;;;15.20;65.40;;;;;;5028593;28;20174;-62
2024/02/01 10:11:55;;;;;;;3.80;2.30;;;15.20;65.90;;;;;;5026808;28;20210;-62
2024/02/01 10:14:34;;;;;;;2.77;2.10;;;15.30;66.00;;;;;;5029145;28;20459;-62
2024/02/01 10:17:05;;;;;;;4.00;2.50;;;15.20;65.60;;;;;;5024265;28;20474;-62
2024/02/01 10:19:31;;;;;;;5.40;2.50;;;15.20;65.90;;;;;;5026292;28;20935;-62
2024/02/01 10:22:10;;;;;;;3.20;2.20;;;15.30;65.90;;;;;;5028135;28;20937;-61
2024/02/01 10:24:45;;;;;;;4.30;2.17;;;15.30;65.50;;;;;;5025995;28;20441;-62
2024/02/01 10:27:12;;;;;;;3.47;2.00;;;15.20;65.80;;;;;;5020929;28;20463;-62
2024/02/01 10:29:44;;;;;;;3.10;2.07;;;15.20;66.10;;;;;;5024830;28;20436;-61
2024/02/01 10:32:14;;;;;;;3.30;2.33;;;15.20;66.90;;;;;;5024735;28;20533;-62
2024/02/01 10:34:45;;;;;;;3.20;2.03;;;15.30;66.40;;;;;;5025379;28;20943;-62
2024/02/01 10:37:13;;;;;;;3.50;1.83;;;15.10;66.70;;;;;;5018451;28;20455;-62
2024/02/01 10:39:48;;;;;;;4.23;2.50;;;15.20;67.00;;;;;;5022508;28;20436;-62
2024/02/01 10:42:21;;;;;;;4.07;2.40;;;15.20;66.90;;;;;;5027204;28;20501;-61
2024/02/01 10:44:50;;;;;;;2.73;2.00;;;15.30;66.80;;;;;;5028053;28;20451;-62
2024/02/01 10:47:20;;;;;;;2.50;2.30;;;15.30;67.10;;;;;;5024361;28;20885;-61
2024/02/01 10:49:52;;;;;;;2.27;2.07;;;15.30;66.90;;;;;;5023335;28;20448;-62
2024/02/01 10:52:20;;;;;;;2.50;2.30;;;15.40;67.00;;;;;;5026072;28;20476;-60
2024/02/01 10:54:50;;;;;;;7.07;1.83;;;15.30;67.80;;;;;;5028552;28;20491;-59
2024/02/01 10:57:17;;;;;;;4.00;2.10;;;15.20;67.60;;;;;;5022990;28;20463;-61
2024/02/01 10:59:45;;;;;;;2.40;2.10;;;15.20;67.90;;;;;;5027562;28;20503;-62
2024/02/01 11:02:12;;;;;;;4.97;2.07;;;15.20;67.90;;;;;;5026798;28;20440;-61
2024/02/01 11:04:38;;;;;;;1.90;1.80;;;15.20;68.10;;;;;;5025991;28;20432;-62
2024/02/01 11:07:05;;;;;;;4.40;2.30;;;15.40;68.10;;;;;;5025149;28;20447;-61
2024/02/01 11:09:30;;;;;;;1.93;1.83;;;15.30;68.00;;;;;;5027539;28;20431;-62
2024/02/01 11:11:57;;;;;;;3.33;2.27;;;15.40;68.10;;;;;;5026350;28;20480;-59
2024/02/01 11:14:27;;;;;;;1.70;1.60;;;15.30;68.30;;;;;;5026524;28;20737;-59
2024/02/01 11:16:58;;;;;;;2.00;1.83;;;15.40;69.00;;;;;;5024972;28;20456;-62
2024/02/01 11:19:25;;;;;;;2.23;1.60;;;15.40;68.10;;;;;;5024344;28;20442;-62
2024/02/01 11:21:52;;;;;;;1.17;1.07;;;15.40;67.80;;;;;;5028594;28;20428;-62
2024/02/01 11:24:24;;;;;;;2.30;1.20;;;15.20;68.10;;;;;;5028756;28;20412;-62
2024/02/01 11:26:57;;;;;;;3.60;1.37;;;15.10;68.60;;;;;;5027536;28;20450;-60
2024/02/01 11:29:28;;;;;;;1.43;1.13;;;15.20;68.50;;;;;;5013041;28;20436;-62
2024/02/01 11:31:56;;;;;;;1.80;1.20;;;15.00;68.70;;;;;;5019831;28;20986;-62
2024/02/01 11:34:25;;;;;;;1.00;1.00;;;14.80;69.60;;;;;;5027514;28;20490;-60
2024/02/01 11:36:51;;;;;;;1.60;1.50;;;15.00;69.60;;;;;;5021877;28;20464;-62
2024/02/01 11:39:17;;;;;;;4.23;1.63;;;15.10;68.80;;;;;;5021422;28;20546;-61
2024/02/01 11:41:46;;;;;;;1.93;1.17;;;15.10;69.00;;;;;;5024215;28;20428;-63
2024/02/01 11:44:15;;;;;;;1.57;1.47;;;14.90;68.80;;;;;;5025832;28;20463;-63
2024/02/01 11:46:48;;;;;;;2.03;1.20;;;14.70;69.30;;;;;;5020902;28;20457;-62
2024/02/01 11:49:21;;;;;;;1.37;1.20;;;14.80;69.60;;;;;;5023807;28;20448;-64
2024/02/01 11:51:51;;;;;;;1.30;1.10;;;14.70;70.10;;;;;;5016640;28;21154;-62
2024/02/01 11:54:17;;;;;;;3.83;1.30;;;14.70;70.10;;;;;;5019157;28;20444;-61
2024/02/01 11:56:45;;;;;;;1.40;1.30;;;14.70;71.20;;;;;;5018012;28;20515;-63
2024/02/01 11:59:11;;;;;;;3.57;1.13;;;14.70;70.40;;;;;;5030052;28;20192;-63
2024/02/01 12:01:38;;;;;;;1.53;1.20;;;14.90;70.20;;;;;;5028446;28;20436;-61
2024/02/01 12:04:06;;;;;;;2.53;1.53;;;14.90;69.90;;;;;;5028685;28;20951;-63
2024/02/01 12:06:32;;;;;;;1.73;1.40;;;14.90;70.90;;;;;;5028111;28;20444;-64
2024/02/01 12:08:59;;;;;;;3.30;1.50;;;15.00;70.10;;;;;;5026431;28;20442;-63
2024/02/01 12:11:29;;;;;;;1.70;1.60;;;14.90;69.90;;;;;;5028019;28;20546;-62
2024/02/01 12:13:59;;;;;;;1.70;1.60;;;14.90;70.20;;;;;;5021428;28;20468;-62
2024/02/01 12:16:25;;;;;;;2.83;1.93;;;15.00;70.10;;;;;;5024275;28;20479;-61
2024/02/01 12:18:54;;;;;;;1.83;1.73;;;14.90;69.70;;;;;;5022186;28;20443;-61
2024/02/01 12:21:29;;;;;;;1.60;1.50;;;15.10;69.50;;;;;;5029063;28;20963;-63
2024/02/01 12:23:57;;;;;;;2.00;1.80;;;15.10;69.70;;;;;;5022203;28;20435;-63
2024/02/01 12:26:27;;;;;;;2.03;1.70;;;15.00;69.80;;;;;;5016807;28;20892;-63
2024/02/01 12:28:56;;;;;;;2.93;1.83;;;15.10;70.00;;;;;;5025817;28;20433;-63
2024/02/01 12:31:22;;;;;;;1.73;1.63;;;15.10;70.00;;;;;;5020147;28;20443;-62
2024/02/01 12:33:54;;;;;;;4.20;1.57;;;14.80;70.20;;;;;;5028919;28;20474;-62
2024/02/01 12:36:20;;;;;;;1.70;1.60;;;14.90;70.50;;;;;;5026605;28;20534;-62
2024/02/01 12:38:47;;;;;;;1.70;1.60;;;14.70;70.10;;;;;;5022669;28;20443;-62
2024/02/01 12:41:16;;;;;;;1.50;1.40;;;14.60;70.30;;;;;;5023216;28;20268;-62
2024/02/01 12:43:44;;;;;;;1.60;1.50;;;14.50;70.70;;;;;;5020192;28;20528;-62
2024/02/01 12:46:11;;;;;;;2.10;1.90;;;14.50;70.70;;;;;;5018899;28;20855;-63
2024/02/01 12:48:40;;;;;;;1.80;1.70;;;14.60;70.50;;;;;;5018393;28;20482;-62
2024/02/01 12:51:06;;;;;;;1.70;1.60;;;14.60;70.10;;;;;;5022229;28;20855;-60
2024/02/01 12:53:33;;;;;;;1.80;1.70;;;14.70;70.20;;;;;;5023052;28;20562;-62
2024/02/01 12:55:59;;;;;;;2.23;2.03;;;14.90;69.70;;;;;;5026805;28;20512;-62
2024/02/01 12:58:24;;;;;;;2.53;1.90;;;14.90;69.80;;;;;;5020984;28;20436;-62
2024/02/01 13:00:50;;;;;;;2.10;1.97;;;14.80;69.70;;;;;;5026016;28;20185;-62
2024/02/01 13:03:16;;;;;;;2.03;1.90;;;14.60;70.20;;;;;;5019762;28;20626;-61
2024/02/01 13:05:45;;;;;;;2.20;2.00;;;14.70;70.30;;;;;;5022053;28;20479;-63
2024/02/01 13:08:14;;;;;;;2.07;1.87;;;14.80;70.10;;;;;;5019445;28;20444;-62
2024/02/01 13:10:44;;;;;;;2.53;1.83;;;14.70;69.80;;;;;;5023054;28;20424;-61
2024/02/01 13:13:10;;;;;;;2.90;2.70;;;14.80;69.80;;;;;;5025969;28;20526;-63
2024/02/01 13:15:37;;;;;;;2.57;2.37;;;14.80;69.70;;;;;;5026236;28;20431;-62
2024/02/01 13:18:03;;;;;;;3.73;2.37;;;14.80;69.50;;;;;;5024448;28;20440;-62
2024/02/01 13:20:29;;;;;;;2.30;2.10;;;14.80;69.10;;;;;;5021581;28;20499;-62
2024/02/01 13:22:56;;;;;;;4.73;2.00;;;14.70;69.40;;;;;;5021030;28;20450;-62
2024/02/01 13:25:22;;;;;;;2.97;2.67;;;14.60;69.80;;;;;;5019547;28;21015;-61
2024/02/01 13:27:50;;;;;;;3.07;2.80;;;14.50;70.00;;;;;;5019902;28;20494;-61
2024/02/01 13:30:17;;;;;;;3.90;2.50;;;14.30;70.20;;;;;;5028797;28;20424;-63
2024/02/01 13:32:43;;;;;;;3.10;2.80;;;14.30;70.80;;;;;;5022126;28;20483;-62
2024/02/01 13:35:10;;;;;;;5.13;3.37;;;14.30;71.30;;;;;;5023212;28;20452;-62
2024/02/01 13:37:35;;;;;;;2.93;2.73;;;14.30;71.10;;;;;;5019143;28;20454;-62
2024/02/01 13:40:05;;;;;;;3.73;2.70;;;14.50;70.80;;;;;;5024820;28;20445;-62
2024/02/01 13:42:32;;;;;;;4.07;2.83;;;14.50;70.30;;;;;;5032344;28;20224;-62
2024/02/01 13:45:01;;;;;;;3.60;3.30;;;14.40;70.40;;;;;;5024629;28;20432;-61
2024/02/01 13:47:27;;;;;;;2.80;2.60;;;14.50;70.30;;;;;;5029315;28;20830;-63
2024/02/01 13:49:53;;;;;;;3.40;2.60;;;14.50;70.30;;;;;;5030147;28;20428;-62
2024/02/01 13:52:19;;;;;;;4.20;3.03;;;14.50;70.50;;;;;;5025037;28;20498;-61